Time;durP1;ratioP1;P1;durP2;ratioP2;P2;SDS_P1;SDS_P2;PMS_P1;PMS_P2;Temp;Humidity;BMP_temperature;BMP_pressure;BME280_temperature;BME280_humidity;BME280_pressure;Samples;Min_cycle;Max_cycle;Signal;HPM_P1;HPM_P2
2023/07/05 00:01:15;;;;;;;1.00;0.80;;;18.50;99.90;;;;;;5102162;28;20511;-80
2023/07/05 00:03:42;;;;;;;1.47;1.00;;;18.50;99.90;;;;;;5104292;28;20985;-80
2023/07/05 00:06:09;;;;;;;2.07;1.30;;;18.50;99.90;;;;;;5103306;28;20946;-80
2023/07/05 00:08:36;;;;;;;2.20;1.00;;;18.40;99.90;;;;;;5095336;28;20449;-83
2023/07/05 00:11:06;;;;;;;2.50;1.10;;;18.40;99.90;;;;;;5106257;28;20536;-82
2023/07/05 00:13:34;;;;;;;1.00;0.90;;;18.30;99.90;;;;;;5106028;28;20454;-80
2023/07/05 00:16:01;;;;;;;1.60;0.90;;;18.40;99.90;;;;;;5098975;28;20473;-80
2023/07/05 00:18:28;;;;;;;1.40;1.07;;;18.40;99.90;;;;;;5106184;28;20990;-81
2023/07/05 00:21:00;;;;;;;3.13;1.23;;;18.40;99.90;;;;;;5106537;28;20450;-81
2023/07/05 00:23:27;;;;;;;1.00;0.77;;;18.30;99.90;;;;;;5100681;28;20450;-80
2023/07/05 00:25:54;;;;;;;1.90;0.70;;;18.20;99.90;;;;;;5106038;28;20460;-81
2023/07/05 00:28:23;;;;;;;2.87;0.80;;;18.30;99.90;;;;;;5098560;28;20451;-80
2023/07/05 00:30:50;;;;;;;2.50;0.90;;;18.10;99.90;;;;;;5111093;28;20474;-82
2023/07/05 00:33:17;;;;;;;0.70;0.70;;;18.10;99.90;;;;;;5098453;28;20507;-80
2023/07/05 00:35:51;;;;;;;1.40;0.97;;;18.00;99.90;;;;;;5102451;28;20454;-82
2023/07/05 00:38:19;;;;;;;1.17;0.80;;;17.90;99.90;;;;;;5103932;28;20488;-81
2023/07/05 00:40:47;;;;;;;1.00;0.87;;;17.90;99.90;;;;;;5110795;28;20453;-81
2023/07/05 00:43:15;;;;;;;1.87;1.17;;;18.00;99.90;;;;;;5104047;28;20450;-83
2023/07/05 00:46:03;;;;;;;1.83;0.73;;;18.00;99.90;;;;;;5118523;27;20690;-83
2023/07/05 00:48:35;;;;;;;2.50;1.33;;;18.00;99.90;;;;;;5123942;27;20827;-82
2023/07/05 00:51:05;;;;;;;0.87;0.87;;;17.90;99.90;;;;;;5115663;28;20487;-82
2023/07/05 00:53:37;;;;;;;2.20;1.00;;;17.90;99.90;;;;;;5095478;28;20452;-81
2023/07/05 00:56:12;;;;;;;0.90;0.80;;;17.80;99.90;;;;;;5100802;27;20476;-81
2023/07/05 00:58:40;;;;;;;1.63;1.03;;;17.80;99.90;;;;;;5103955;27;20459;-80
2023/07/05 01:01:08;;;;;;;1.00;0.90;;;17.70;99.90;;;;;;5109773;28;20443;-81
2023/07/05 01:03:36;;;;;;;1.00;0.83;;;17.60;99.90;;;;;;5105681;28;20556;-81
2023/07/05 01:06:06;;;;;;;2.10;1.20;;;17.60;99.90;;;;;;5105945;28;20512;-81
2023/07/05 01:08:33;;;;;;;1.10;1.00;;;17.40;99.90;;;;;;5105614;28;20512;-82
2023/07/05 01:11:10;;;;;;;1.20;0.80;;;17.40;99.90;;;;;;5108429;28;20491;-81
2023/07/05 01:13:41;;;;;;;1.60;1.10;;;17.30;99.90;;;;;;5097730;28;20451;-81
2023/07/05 01:16:24;;;;;;;1.30;1.00;;;17.30;99.90;;;;;;5099119;27;20515;-82
2023/07/05 01:18:59;;;;;;;1.67;1.10;;;17.30;99.90;;;;;;5104599;28;20854;-84
2023/07/05 01:21:34;;;;;;;1.47;1.23;;;17.20;99.90;;;;;;5108152;27;20455;-84
2023/07/05 01:24:18;;;;;;;1.83;1.30;;;17.10;99.90;;;;;;5104102;28;20460;-82
2023/07/05 01:27:14;;;;;;;1.67;1.00;;;16.90;99.90;;;;;;5094864;28;20466;-82
2023/07/05 01:30:02;;;;;;;2.30;1.40;;;16.90;99.90;;;;;;5101354;28;20455;-83
2023/07/05 01:32:37;;;;;;;1.53;1.00;;;16.70;99.90;;;;;;5099230;28;20437;-82
2023/07/05 01:35:11;;;;;;;1.23;0.83;;;16.70;99.90;;;;;;5093088;28;20464;-84
2023/07/05 01:37:40;;;;;;;0.90;0.60;;;16.60;99.90;;;;;;5100031;28;20451;-83
2023/07/05 01:41:07;;;;;;;1.60;1.40;;;16.60;99.90;;;;;;5109916;27;20432;-82
2023/07/05 01:43:39;;;;;;;1.10;1.00;;;16.60;99.90;;;;;;5024571;28;20451;-83
2023/07/05 01:46:27;;;;;;;3.23;1.60;;;16.40;99.90;;;;;;5083305;27;21122;-82
2023/07/05 01:49:24;;;;;;;1.60;1.17;;;16.50;99.90;;;;;;5097783;28;21260;-80
2023/07/05 01:51:57;;;;;;;0.80;0.70;;;16.50;99.90;;;;;;5088067;28;20957;-80
2023/07/05 01:54:31;;;;;;;1.30;1.20;;;16.60;99.90;;;;;;5093024;28;20478;-81
2023/07/05 01:57:02;;;;;;;2.10;0.80;;;16.50;99.90;;;;;;5104914;27;20955;-80
2023/07/05 01:59:35;;;;;;;1.40;1.30;;;16.60;99.90;;;;;;5100895;28;20463;-81
2023/07/05 02:02:04;;;;;;;1.87;1.03;;;16.70;99.90;;;;;;5106789;28;20504;-83
2023/07/05 02:04:35;;;;;;;1.27;1.00;;;16.60;99.90;;;;;;5104424;27;20561;-81
2023/07/05 02:07:03;;;;;;;3.40;2.00;;;16.60;99.90;;;;;;5102397;28;20488;-81
2023/07/05 02:09:32;;;;;;;1.40;0.90;;;16.60;99.90;;;;;;5113333;28;20445;-81
2023/07/05 02:11:58;;;;;;;0.87;0.83;;;16.50;99.90;;;;;;5130895;27;20477;-81
2023/07/05 02:14:25;;;;;;;1.80;1.23;;;16.50;99.90;;;;;;5113289;28;20440;-81
2023/07/05 02:16:54;;;;;;;1.30;1.20;;;16.40;99.90;;;;;;5105807;28;20457;-81
2023/07/05 02:19:21;;;;;;;1.30;1.00;;;16.30;99.90;;;;;;5107257;28;20448;-81
2023/07/05 02:21:48;;;;;;;1.50;1.03;;;16.30;99.90;;;;;;5107847;28;20471;-83
2023/07/05 02:24:15;;;;;;;2.40;1.43;;;16.30;99.90;;;;;;5099135;27;20451;-79
2023/07/05 02:26:42;;;;;;;2.60;1.10;;;16.30;99.90;;;;;;5101787;28;20503;-80
2023/07/05 02:29:09;;;;;;;1.93;1.33;;;16.20;99.90;;;;;;5108323;27;20442;-81
2023/07/05 02:31:36;;;;;;;1.40;1.00;;;16.20;99.90;;;;;;5105454;28;20490;-80
2023/07/05 02:34:04;;;;;;;1.27;1.17;;;16.20;99.90;;;;;;5100243;28;20463;-80
2023/07/05 02:36:31;;;;;;;1.80;1.30;;;16.20;99.90;;;;;;5100052;28;20443;-80
2023/07/05 02:38:58;;;;;;;3.00;1.50;;;16.20;99.90;;;;;;5106536;27;20466;-80
2023/07/05 02:41:25;;;;;;;2.50;1.20;;;16.20;99.90;;;;;;5097623;28;21180;-80
2023/07/05 02:43:52;;;;;;;1.10;1.00;;;16.20;99.90;;;;;;5093510;27;20550;-80
2023/07/05 02:46:19;;;;;;;1.57;1.47;;;16.20;99.90;;;;;;5100057;28;21038;-80
2023/07/05 02:48:46;;;;;;;1.57;1.07;;;16.30;99.90;;;;;;5099876;28;20460;-79
2023/07/05 02:51:15;;;;;;;1.90;1.37;;;16.20;99.90;;;;;;5106109;28;21171;-80
2023/07/05 02:53:42;;;;;;;2.67;1.50;;;16.10;99.90;;;;;;5107551;28;20496;-80
2023/07/05 02:56:09;;;;;;;1.33;0.90;;;16.10;99.90;;;;;;5102226;28;20495;-79
2023/07/05 02:58:35;;;;;;;1.70;1.20;;;16.10;99.90;;;;;;5105398;28;20955;-80
2023/07/05 03:01:02;;;;;;;1.60;0.93;;;16.10;99.90;;;;;;5105666;28;20456;-80
2023/07/05 03:03:29;;;;;;;3.93;1.00;;;16.10;99.90;;;;;;5103888;28;20512;-80
2023/07/05 03:05:58;;;;;;;1.77;1.03;;;16.20;99.90;;;;;;5106518;28;20462;-82
2023/07/05 03:08:28;;;;;;;2.90;1.03;;;16.10;99.90;;;;;;5091098;28;20508;-81
2023/07/05 03:10:55;;;;;;;0.87;0.80;;;16.20;99.90;;;;;;5089438;27;20491;-80
2023/07/05 03:13:22;;;;;;;0.70;0.67;;;16.10;99.90;;;;;;5104114;28;20437;-80
2023/07/05 03:15:49;;;;;;;1.03;0.83;;;16.10;99.90;;;;;;5100932;28;20459;-81
2023/07/05 03:18:16;;;;;;;1.50;0.70;;;16.30;99.90;;;;;;5097127;28;20462;-82
2023/07/05 03:20:46;;;;;;;1.00;0.90;;;16.30;99.90;;;;;;5100386;28;21174;-80
2023/07/05 03:23:13;;;;;;;0.77;0.70;;;16.40;99.90;;;;;;5103782;28;20452;-80
2023/07/05 03:25:42;;;;;;;1.50;1.10;;;16.30;99.90;;;;;;5104790;28;20984;-80
2023/07/05 03:28:09;;;;;;;1.33;0.70;;;16.30;99.90;;;;;;5107167;28;20504;-82
2023/07/05 03:30:36;;;;;;;0.77;0.70;;;16.30;99.90;;;;;;5106624;28;20449;-80
2023/07/05 03:33:04;;;;;;;1.10;0.70;;;16.30;99.90;;;;;;5102774;28;20516;-80
2023/07/05 03:35:31;;;;;;;0.90;0.73;;;16.30;99.90;;;;;;5119621;28;20459;-80
2023/07/05 03:37:58;;;;;;;1.20;0.77;;;16.50;99.90;;;;;;5110906;28;20454;-80
2023/07/05 03:40:25;;;;;;;1.33;1.10;;;16.60;99.90;;;;;;5107899;28;20471;-81
2023/07/05 03:42:53;;;;;;;1.67;0.80;;;16.70;99.90;;;;;;5108295;28;20500;-81
2023/07/05 03:45:20;;;;;;;2.00;0.90;;;16.60;99.90;;;;;;5101198;28;20500;-80
2023/07/05 03:47:47;;;;;;;1.70;0.90;;;16.50;99.90;;;;;;5105491;28;20568;-82
2023/07/05 03:50:14;;;;;;;2.23;0.87;;;16.40;99.90;;;;;;5101331;28;20474;-83
2023/07/05 03:52:41;;;;;;;1.90;0.90;;;16.50;99.90;;;;;;5107667;28;20483;-81
2023/07/05 03:55:09;;;;;;;1.00;0.73;;;16.60;99.90;;;;;;5101673;28;20446;-79
2023/07/05 03:57:36;;;;;;;2.30;0.87;;;16.90;99.90;;;;;;5103458;28;20512;-82
2023/07/05 04:00:05;;;;;;;1.07;0.83;;;16.90;99.90;;;;;;5105702;28;20516;-82
2023/07/05 04:02:32;;;;;;;3.03;1.30;;;17.00;99.90;;;;;;5101658;28;20480;-81
2023/07/05 04:04:59;;;;;;;2.13;1.03;;;17.00;99.90;;;;;;5101832;28;20542;-82
2023/07/05 04:07:29;;;;;;;4.80;2.80;;;16.90;99.90;;;;;;5100785;28;20472;-80
2023/07/05 04:09:56;;;;;;;1.30;1.13;;;17.00;99.90;;;;;;5106224;28;20902;-82
2023/07/05 04:12:22;;;;;;;1.70;1.10;;;17.00;99.90;;;;;;5101974;28;20550;-79
2023/07/05 04:14:50;;;;;;;2.40;0.97;;;17.00;99.90;;;;;;5101154;28;20465;-80
2023/07/05 04:17:18;;;;;;;1.33;1.20;;;17.00;99.90;;;;;;5103014;27;20446;-81
2023/07/05 04:19:45;;;;;;;1.50;1.37;;;17.00;99.90;;;;;;5104394;28;20503;-80
2023/07/05 04:22:12;;;;;;;2.73;1.03;;;17.00;99.90;;;;;;5105193;28;20962;-81
2023/07/05 04:24:39;;;;;;;3.40;1.30;;;17.00;99.90;;;;;;5110055;27;20458;-82
2023/07/05 04:27:06;;;;;;;2.17;1.10;;;16.90;99.90;;;;;;5105534;28;20458;-80
2023/07/05 04:29:34;;;;;;;1.10;1.00;;;16.90;99.90;;;;;;5103269;28;20540;-80
2023/07/05 04:32:01;;;;;;;3.20;1.10;;;17.00;99.90;;;;;;5106548;28;20490;-80
2023/07/05 04:34:29;;;;;;;4.67;1.30;;;17.20;99.90;;;;;;5119060;27;20445;-83
2023/07/05 04:36:56;;;;;;;1.60;0.73;;;17.50;99.90;;;;;;5110140;27;20514;-82
2023/07/05 04:39:23;;;;;;;3.33;1.40;;;17.60;99.90;;;;;;5107374;28;20453;-81
2023/07/05 04:41:50;;;;;;;1.10;0.90;;;17.80;99.90;;;;;;5104698;28;20448;-80
2023/07/05 04:44:17;;;;;;;82.60;37.60;;;17.80;99.90;;;;;;5104144;27;20518;-80
2023/07/05 04:46:44;;;;;;;1.30;1.10;;;18.00;99.90;;;;;;5102994;28;20506;-81
2023/07/05 04:49:11;;;;;;;1.20;1.00;;;18.10;99.90;;;;;;5107308;27;20875;-81
2023/07/05 04:51:39;;;;;;;1.13;1.03;;;18.10;99.90;;;;;;5104829;27;21035;-79
2023/07/05 04:54:06;;;;;;;4.00;0.90;;;18.10;99.90;;;;;;5104834;28;20467;-80
2023/07/05 04:56:33;;;;;;;2.10;0.97;;;18.10;99.90;;;;;;5108142;28;20448;-79
2023/07/05 04:59:01;;;;;;;1.20;1.10;;;18.10;99.90;;;;;;5108628;28;20447;-79
2023/07/05 05:01:28;;;;;;;2.30;1.00;;;18.10;99.90;;;;;;5106759;27;20463;-80
2023/07/05 05:03:55;;;;;;;1.57;1.10;;;18.20;99.90;;;;;;5108283;28;20524;-80
2023/07/05 05:06:22;;;;;;;3.60;0.90;;;18.40;99.90;;;;;;5106767;27;20463;-81
2023/07/05 05:08:51;;;;;;;0.80;0.70;;;18.50;99.90;;;;;;5107954;28;20821;-80
2023/07/05 05:11:18;;;;;;;0.70;0.60;;;18.50;99.90;;;;;;5106658;27;20468;-81
2023/07/05 05:13:45;;;;;;;1.70;0.60;;;18.50;99.90;;;;;;5102364;28;20519;-81
2023/07/05 05:16:12;;;;;;;1.20;0.90;;;18.70;99.90;;;;;;5105715;28;20525;-80
2023/07/05 05:18:38;;;;;;;0.70;0.70;;;18.90;99.90;;;;;;5107836;28;20466;-81
2023/07/05 05:21:06;;;;;;;0.70;0.60;;;19.10;99.90;;;;;;5105281;27;20885;-80
2023/07/05 05:23:32;;;;;;;1.30;1.20;;;19.30;99.90;;;;;;5107868;28;20805;-79
2023/07/05 05:26:01;;;;;;;4.60;1.50;;;19.30;99.90;;;;;;5106711;28;20474;-82
2023/07/05 05:28:29;;;;;;;0.80;0.80;;;19.50;99.90;;;;;;5102069;28;20490;-80
2023/07/05 05:31:05;;;;;;;1.60;0.70;;;19.60;99.90;;;;;;5103456;28;20470;-82
2023/07/05 05:33:32;;;;;;;2.93;0.70;;;19.60;99.90;;;;;;5106825;27;20518;-80
2023/07/05 05:35:59;;;;;;;1.93;0.90;;;19.70;99.90;;;;;;5098050;27;20454;-80
2023/07/05 05:38:26;;;;;;;2.30;0.80;;;19.80;99.90;;;;;;5106945;28;20509;-80
2023/07/05 05:40:53;;;;;;;2.77;0.87;;;19.70;99.90;;;;;;5097759;27;21091;-79
2023/07/05 05:43:22;;;;;;;1.60;0.50;;;19.50;99.90;;;;;;5108509;27;21005;-79
2023/07/05 05:45:49;;;;;;;1.00;0.90;;;19.60;99.90;;;;;;5104878;28;20450;-81
2023/07/05 05:48:16;;;;;;;1.20;0.90;;;19.50;99.90;;;;;;5106258;28;21317;-82
2023/07/05 05:50:43;;;;;;;1.47;0.80;;;19.60;99.90;;;;;;5102747;28;20524;-80
2023/07/05 05:53:11;;;;;;;3.50;0.70;;;19.40;99.90;;;;;;5104731;28;20481;-81
2023/07/05 05:55:38;;;;;;;1.63;0.60;;;19.30;99.90;;;;;;5107180;28;20446;-81
2023/07/05 05:58:05;;;;;;;2.30;0.60;;;19.40;99.90;;;;;;5108860;27;20442;-81
2023/07/05 06:00:34;;;;;;;1.10;0.60;;;19.50;99.90;;;;;;5102257;28;20486;-82
2023/07/05 06:03:01;;;;;;;1.30;1.10;;;19.60;99.90;;;;;;5103071;28;20471;-80
2023/07/05 06:05:28;;;;;;;2.30;0.70;;;19.60;99.90;;;;;;5106025;28;20497;-81
2023/07/05 06:07:55;;;;;;;1.10;0.70;;;19.60;99.90;;;;;;5102335;28;20492;-80
2023/07/05 06:10:22;;;;;;;1.53;0.60;;;19.70;99.90;;;;;;5105481;27;20466;-83
2023/07/05 06:12:49;;;;;;;1.00;0.80;;;19.90;99.90;;;;;;5101215;27;20509;-81
2023/07/05 06:15:16;;;;;;;2.10;0.93;;;20.00;99.90;;;;;;5105131;28;20615;-81
2023/07/05 06:17:45;;;;;;;0.70;0.70;;;20.00;99.90;;;;;;5106452;28;20447;-79
2023/07/05 06:20:14;;;;;;;0.97;0.70;;;20.40;99.90;;;;;;5097940;28;20455;-79
2023/07/05 06:22:41;;;;;;;1.53;0.73;;;20.80;99.90;;;;;;5104337;27;20497;-78
2023/07/05 06:25:10;;;;;;;1.30;1.00;;;21.00;99.90;;;;;;5106787;27;20455;-79
2023/07/05 06:27:38;;;;;;;1.67;0.80;;;21.20;99.90;;;;;;5102544;28;20442;-80
2023/07/05 06:30:06;;;;;;;1.43;0.90;;;21.50;99.90;;;;;;5103568;28;20514;-80
2023/07/05 06:32:34;;;;;;;0.80;0.80;;;21.50;99.90;;;;;;5098080;28;20483;-80
2023/07/05 06:35:03;;;;;;;2.10;1.03;;;21.40;98.90;;;;;;5102048;28;20446;-81
2023/07/05 06:37:30;;;;;;;0.70;0.60;;;21.20;97.60;;;;;;5108567;27;20469;-79
2023/07/05 06:39:57;;;;;;;1.93;0.60;;;21.30;98.80;;;;;;5100048;28;20863;-80
2023/07/05 06:42:24;;;;;;;1.43;0.60;;;21.20;98.80;;;;;;5107126;28;20451;-79
2023/07/05 06:44:51;;;;;;;5.60;0.97;;;21.20;99.10;;;;;;5108407;27;21104;-81
2023/07/05 06:47:18;;;;;;;0.80;0.60;;;21.10;99.70;;;;;;5104276;27;20462;-81
2023/07/05 06:49:44;;;;;;;1.90;0.70;;;21.10;99.40;;;;;;5103856;27;20462;-81
2023/07/05 06:52:13;;;;;;;0.60;0.57;;;21.30;99.80;;;;;;5108714;27;21096;-80
2023/07/05 06:54:40;;;;;;;1.83;0.50;;;21.40;98.20;;;;;;5104779;27;20483;-81
2023/07/05 06:57:07;;;;;;;0.90;0.57;;;21.50;98.20;;;;;;5104968;28;20524;-79
2023/07/05 06:59:34;;;;;;;1.07;0.60;;;21.70;96.70;;;;;;5105297;28;20443;-80
2023/07/05 07:02:01;;;;;;;0.93;0.50;;;21.90;96.80;;;;;;5098797;28;20528;-81
2023/07/05 07:04:29;;;;;;;0.93;0.70;;;22.30;97.20;;;;;;5096541;28;20508;-80
2023/07/05 07:06:56;;;;;;;1.10;0.50;;;22.60;96.00;;;;;;5094265;28;20468;-81
2023/07/05 07:09:25;;;;;;;0.93;0.60;;;22.80;94.50;;;;;;5105019;28;21001;-80
2023/07/05 07:11:52;;;;;;;3.33;0.67;;;22.80;95.60;;;;;;5099274;28;20464;-80
2023/07/05 07:14:19;;;;;;;1.40;0.70;;;23.10;94.10;;;;;;5104310;28;21009;-78
2023/07/05 07:16:46;;;;;;;0.60;0.50;;;22.90;93.60;;;;;;5098891;28;20503;-80
2023/07/05 07:19:13;;;;;;;0.60;0.60;;;23.10;94.50;;;;;;5099545;28;20462;-78
2023/07/05 07:21:40;;;;;;;1.27;0.80;;;23.30;93.30;;;;;;5098682;28;20943;-78
2023/07/05 07:24:07;;;;;;;0.80;0.60;;;23.70;95.40;;;;;;5102201;28;20470;-80
2023/07/05 07:26:36;;;;;;;1.07;0.70;;;24.10;92.70;;;;;;5092448;28;21190;-79
2023/07/05 07:29:04;;;;;;;1.03;0.70;;;24.20;92.60;;;;;;5104394;28;20456;-78
2023/07/05 07:31:33;;;;;;;3.77;0.67;;;24.30;91.60;;;;;;5105067;28;21202;-80
2023/07/05 07:34:02;;;;;;;1.07;0.97;;;24.20;90.70;;;;;;5105069;28;20518;-78
2023/07/05 07:36:31;;;;;;;1.60;0.73;;;24.00;91.70;;;;;;5108195;28;20448;-81
2023/07/05 07:38:59;;;;;;;0.63;0.60;;;23.80;91.40;;;;;;5099508;28;20987;-80
2023/07/05 07:41:29;;;;;;;1.73;0.60;;;23.90;90.40;;;;;;5105869;28;20554;-83
2023/07/05 07:44:00;;;;;;;0.90;0.77;;;24.10;91.60;;;;;;5106086;28;20464;-81
2023/07/05 07:46:29;;;;;;;1.47;0.70;;;24.20;90.60;;;;;;5101949;28;20875;-78
2023/07/05 07:48:58;;;;;;;1.07;1.03;;;24.20;92.50;;;;;;5109032;27;20452;-87
2023/07/05 07:51:27;;;;;;;3.80;0.70;;;24.50;88.50;;;;;;5112481;27;20443;-78
2023/07/05 07:53:54;;;;;;;3.27;0.80;;;24.60;88.70;;;;;;5106850;28;20516;-77
2023/07/05 07:56:23;;;;;;;0.70;0.70;;;24.90;90.10;;;;;;5110530;28;20934;-76
2023/07/05 07:58:51;;;;;;;0.60;0.60;;;25.10;88.10;;;;;;5110739;28;20498;-78
2023/07/05 08:01:25;;;;;;;1.57;0.73;;;25.40;84.00;;;;;;5106639;28;20478;-78
2023/07/05 08:03:52;;;;;;;1.53;0.80;;;25.60;85.50;;;;;;5109576;28;20484;-78
2023/07/05 08:06:20;;;;;;;4.43;1.10;;;25.90;77.60;;;;;;5109936;28;20448;-78
2023/07/05 08:08:47;;;;;;;2.17;0.80;;;26.00;78.30;;;;;;5109769;28;20456;-77
2023/07/05 08:11:14;;;;;;;6.20;0.90;;;25.80;76.80;;;;;;5104227;28;20464;-77
2023/07/05 08:13:42;;;;;;;1.20;0.80;;;25.60;75.30;;;;;;5104297;28;20572;-77
2023/07/05 08:16:10;;;;;;;0.83;0.70;;;25.40;78.50;;;;;;5109430;28;20449;-77
2023/07/05 08:18:38;;;;;;;0.80;0.80;;;25.70;79.30;;;;;;5108175;28;21025;-79
2023/07/05 08:21:05;;;;;;;2.00;0.93;;;25.50;78.40;;;;;;5106669;27;20473;-77
2023/07/05 08:23:32;;;;;;;0.90;0.80;;;25.40;76.20;;;;;;5109945;28;21017;-77
2023/07/05 08:26:00;;;;;;;1.43;0.80;;;25.70;80.60;;;;;;5104859;27;20505;-77
2023/07/05 08:28:28;;;;;;;1.00;0.90;;;26.00;73.50;;;;;;5107579;28;20540;-76
2023/07/05 08:30:56;;;;;;;1.07;0.80;;;26.20;74.70;;;;;;5103057;27;20512;-77
2023/07/05 08:33:24;;;;;;;0.80;0.80;;;26.00;73.60;;;;;;5105951;28;20534;-77
2023/07/05 08:36:09;;;;;;;0.70;0.70;;;26.00;75.80;;;;;;5101989;27;20870;-78
2023/07/05 08:38:42;;;;;;;1.80;1.13;;;26.20;74.50;;;;;;5107813;28;20441;-77
2023/07/05 08:41:20;;;;;;;1.27;0.80;;;26.30;70.70;;;;;;5101584;28;20465;-78
2023/07/05 08:43:54;;;;;;;1.50;0.70;;;26.50;73.30;;;;;;5106810;28;20503;-79
2023/07/05 08:46:22;;;;;;;0.80;0.80;;;26.60;67.50;;;;;;5106374;28;20461;-80
2023/07/05 08:48:50;;;;;;;1.53;1.43;;;27.00;73.60;;;;;;5107948;27;21022;-78
2023/07/05 08:51:20;;;;;;;1.40;0.70;;;27.00;69.30;;;;;;5112551;27;20446;-77
2023/07/05 08:53:52;;;;;;;1.20;0.80;;;26.90;69.30;;;;;;5108135;28;20477;-78
2023/07/05 08:56:25;;;;;;;2.50;0.90;;;26.90;64.30;;;;;;5104893;28;20515;-81
2023/07/05 08:58:57;;;;;;;0.90;0.80;;;26.70;66.10;;;;;;5104262;28;21013;-78
2023/07/05 09:01:27;;;;;;;1.33;1.20;;;26.00;63.60;;;;;;5108960;28;20507;-78
2023/07/05 09:03:54;;;;;;;1.23;0.97;;;25.80;69.90;;;;;;5105001;27;20876;-80
2023/07/05 09:06:26;;;;;;;1.30;1.00;;;26.20;71.00;;;;;;5109166;28;20449;-79
2023/07/05 09:09:12;;;;;;;3.13;0.80;;;26.50;69.40;;;;;;5107028;28;20539;-78
2023/07/05 09:11:48;;;;;;;0.90;0.70;;;25.80;67.60;;;;;;5103822;28;20720;-79
2023/07/05 09:14:35;;;;;;;1.20;0.90;;;25.30;63.40;;;;;;5107151;28;20511;-80
2023/07/05 09:17:08;;;;;;;1.80;1.00;;;24.90;70.10;;;;;;5099104;28;20469;-78
2023/07/05 09:19:45;;;;;;;2.07;0.80;;;24.70;68.20;;;;;;5105026;28;20496;-81
2023/07/05 09:22:20;;;;;;;1.00;0.90;;;24.90;70.70;;;;;;5108445;27;20460;-81
2023/07/05 09:24:50;;;;;;;1.13;1.03;;;25.20;69.90;;;;;;5108985;28;20548;-78
2023/07/05 09:27:20;;;;;;;0.90;0.70;;;25.70;71.00;;;;;;5107841;28;21080;-81
2023/07/05 09:29:52;;;;;;;1.40;0.90;;;26.10;67.70;;;;;;5108788;27;20445;-79
2023/07/05 09:32:23;;;;;;;0.90;0.80;;;26.00;65.30;;;;;;5106059;28;21219;-81
2023/07/05 09:34:56;;;;;;;2.50;1.20;;;25.80;65.70;;;;;;5098082;27;20918;-79
2023/07/05 09:37:26;;;;;;;1.07;0.97;;;25.50;67.90;;;;;;5108350;28;20464;-78
2023/07/05 09:40:10;;;;;;;1.10;0.97;;;25.80;70.40;;;;;;5099827;27;20562;-78
2023/07/05 09:42:42;;;;;;;0.80;0.80;;;26.10;67.90;;;;;;5109528;27;20518;-79
2023/07/05 09:45:13;;;;;;;6.20;0.80;;;26.30;63.80;;;;;;5098365;27;20513;-79
2023/07/05 09:47:40;;;;;;;0.80;0.70;;;26.80;64.20;;;;;;5089742;28;20462;-77
2023/07/05 09:50:18;;;;;;;1.43;0.90;;;27.20;59.80;;;;;;5106278;27;20958;-82
2023/07/05 09:52:50;;;;;;;2.30;0.83;;;27.20;60.10;;;;;;5105594;28;20451;-78
2023/07/05 09:55:19;;;;;;;2.60;1.10;;;27.40;62.10;;;;;;5100546;28;20443;-79
2023/07/05 09:57:47;;;;;;;1.63;1.53;;;27.90;57.20;;;;;;5103553;28;20470;-80
2023/07/05 10:00:34;;;;;;;0.60;0.60;;;28.50;58.10;;;;;;5097525;28;20468;-77
2023/07/05 10:03:07;;;;;;;1.10;0.80;;;28.00;53.30;;;;;;5102097;28;20503;-77
2023/07/05 10:05:34;;;;;;;3.67;0.90;;;27.50;54.90;;;;;;5105904;28;20466;-77
2023/07/05 10:08:05;;;;;;;0.83;0.80;;;26.90;54.50;;;;;;5099495;27;20456;-76
2023/07/05 10:10:36;;;;;;;0.90;0.90;;;26.60;58.20;;;;;;5102970;28;20462;-78
2023/07/05 10:13:12;;;;;;;1.53;0.80;;;26.60;55.30;;;;;;5105363;27;20508;-76
2023/07/05 10:15:42;;;;;;;1.33;0.80;;;26.60;57.90;;;;;;5106801;28;20493;-77
2023/07/05 10:18:25;;;;;;;1.33;0.83;;;26.70;58.30;;;;;;5105095;28;20474;-76
2023/07/05 10:20:52;;;;;;;0.90;0.80;;;27.20;53.80;;;;;;5102762;28;20470;-76
2023/07/05 10:23:22;;;;;;;0.77;0.70;;;27.40;52.80;;;;;;5107616;27;21114;-77
2023/07/05 10:25:51;;;;;;;0.97;0.93;;;27.40;53.00;;;;;;5109890;27;20457;-79
2023/07/05 10:28:26;;;;;;;1.67;0.67;;;27.20;53.20;;;;;;5107655;28;20439;-77
2023/07/05 10:30:55;;;;;;;0.70;0.70;;;27.40;53.00;;;;;;5098607;28;20486;-76
2023/07/05 10:33:24;;;;;;;0.70;0.60;;;27.40;51.20;;;;;;5102721;28;20478;-76
2023/07/05 10:35:57;;;;;;;1.00;0.90;;;27.30;52.70;;;;;;5107473;28;20451;-77
2023/07/05 10:38:27;;;;;;;1.07;0.70;;;27.30;51.40;;;;;;5106999;28;20444;-79
2023/07/05 10:40:59;;;;;;;1.30;0.70;;;27.40;50.70;;;;;;5105710;28;20523;-77
2023/07/05 10:43:27;;;;;;;1.57;0.70;;;27.20;51.50;;;;;;5101527;27;20531;-78
2023/07/05 10:45:55;;;;;;;0.73;0.70;;;27.40;51.30;;;;;;5094219;28;20466;-77
2023/07/05 10:48:36;;;;;;;0.80;0.60;;;27.30;53.80;;;;;;5105647;28;20529;-78
2023/07/05 10:51:04;;;;;;;1.13;0.77;;;27.60;50.00;;;;;;5106478;28;20462;-78
2023/07/05 10:53:33;;;;;;;1.23;1.13;;;27.30;49.40;;;;;;5101032;28;20537;-78
2023/07/05 10:56:06;;;;;;;3.47;0.70;;;27.60;49.30;;;;;;5095308;28;20468;-81
2023/07/05 10:58:41;;;;;;;1.37;0.77;;;27.50;51.80;;;;;;5106131;28;20451;-78
2023/07/05 11:01:16;;;;;;;1.20;1.20;;;27.70;52.10;;;;;;5103938;28;20862;-82
2023/07/05 11:03:48;;;;;;;0.60;0.60;;;28.40;50.10;;;;;;5088814;27;21010;-79
2023/07/05 11:06:17;;;;;;;5.17;0.80;;;28.20;48.40;;;;;;5103374;28;20989;-80
2023/07/05 11:08:46;;;;;;;1.40;0.80;;;28.30;48.60;;;;;;5104596;28;20510;-78
2023/07/05 11:11:17;;;;;;;0.87;0.70;;;28.60;48.40;;;;;;5103245;28;22095;-78
2023/07/05 11:13:45;;;;;;;0.80;0.60;;;28.40;48.10;;;;;;5097600;28;20600;-78
2023/07/05 11:16:18;;;;;;;1.20;0.60;;;28.40;49.10;;;;;;5105044;28;20441;-78
2023/07/05 11:18:46;;;;;;;1.23;0.90;;;28.10;47.60;;;;;;5102648;28;20892;-80
2023/07/05 11:21:38;;;;;;;3.13;1.13;;;28.30;50.00;;;;;;5103730;28;20453;-79
2023/07/05 11:24:08;;;;;;;3.53;0.80;;;28.40;49.80;;;;;;5106649;28;20468;-78
2023/07/05 11:26:38;;;;;;;2.70;0.80;;;28.40;48.30;;;;;;5096399;28;20512;-77
2023/07/05 11:29:47;;;;;;;1.30;0.70;;;28.10;48.40;;;;;;5106153;28;20448;-78
2023/07/05 11:32:14;;;;;;;2.43;0.90;;;27.60;49.90;;;;;;5101879;28;20458;-79
2023/07/05 11:34:47;;;;;;;1.23;0.93;;;27.30;50.70;;;;;;5096873;28;20552;-79
2023/07/05 11:37:41;;;;;;;1.30;1.20;;;27.80;50.10;;;;;;5100234;28;20467;-79
2023/07/05 11:40:41;;;;;;;2.50;0.70;;;28.10;50.20;;;;;;5106195;28;20448;-82
2023/07/05 11:43:32;;;;;;;0.93;0.67;;;28.20;48.10;;;;;;5103167;28;20452;-79
2023/07/05 11:45:59;;;;;;;3.70;0.90;;;28.20;47.20;;;;;;5096979;28;20473;-80
2023/07/05 11:48:38;;;;;;;1.73;1.63;;;28.00;48.10;;;;;;5100018;28;20517;-81
2023/07/05 11:51:25;;;;;;;1.00;0.90;;;28.10;46.40;;;;;;5100221;28;20456;-79
2023/07/05 11:53:55;;;;;;;2.03;1.40;;;28.40;47.70;;;;;;5099012;28;20541;-76
2023/07/05 11:56:25;;;;;;;2.93;1.70;;;28.80;45.40;;;;;;5091112;28;20935;-76
2023/07/05 11:58:59;;;;;;;2.70;1.97;;;28.80;44.30;;;;;;5097313;28;21081;-76
2023/07/05 12:01:30;;;;;;;0.90;0.90;;;29.00;43.50;;;;;;5103801;28;20454;-79
2023/07/05 12:04:02;;;;;;;1.27;1.10;;;29.30;43.40;;;;;;5105340;28;20831;-75
2023/07/05 12:06:37;;;;;;;2.60;0.87;;;29.40;44.80;;;;;;5109949;28;20446;-78
2023/07/05 12:09:09;;;;;;;0.80;0.70;;;29.20;42.70;;;;;;5096449;28;20808;-78
2023/07/05 12:11:38;;;;;;;0.80;0.60;;;28.70;39.50;;;;;;5098870;28;20462;-78
2023/07/05 12:14:10;;;;;;;0.80;0.77;;;28.70;41.30;;;;;;5105406;28;20490;-80
2023/07/05 12:16:37;;;;;;;0.80;0.70;;;28.50;41.20;;;;;;5100568;28;20466;-78
2023/07/05 12:19:07;;;;;;;2.10;0.70;;;28.90;42.20;;;;;;5101176;28;20449;-78
2023/07/05 12:21:35;;;;;;;1.00;0.70;;;28.90;43.40;;;;;;5097038;28;20510;-78
2023/07/05 12:24:07;;;;;;;0.73;0.70;;;28.80;43.80;;;;;;5091988;28;20459;-78
2023/07/05 12:26:35;;;;;;;1.67;0.80;;;28.70;42.40;;;;;;5100074;28;20546;-79
2023/07/05 12:29:14;;;;;;;4.07;0.80;;;28.40;43.30;;;;;;5102938;28;21429;-79
2023/07/05 12:31:43;;;;;;;1.33;1.00;;;28.40;43.20;;;;;;5101352;28;20465;-81
2023/07/05 12:34:19;;;;;;;0.63;0.60;;;29.00;41.80;;;;;;5106381;27;20495;-78
2023/07/05 12:36:46;;;;;;;2.10;0.93;;;29.10;39.60;;;;;;5110133;27;20445;-81
2023/07/05 12:39:16;;;;;;;1.57;0.80;;;29.20;41.20;;;;;;5097838;28;20475;-80
2023/07/05 12:41:44;;;;;;;2.00;1.00;;;29.20;37.60;;;;;;5105207;28;20624;-80
2023/07/05 12:44:16;;;;;;;0.90;0.60;;;29.00;38.10;;;;;;5113116;27;20465;-81
2023/07/05 12:46:45;;;;;;;1.30;0.70;;;29.10;37.10;;;;;;5098828;28;20519;-79
2023/07/05 12:49:13;;;;;;;1.37;0.70;;;29.10;37.20;;;;;;5098718;28;20461;-77
2023/07/05 12:51:51;;;;;;;3.17;0.87;;;29.10;37.70;;;;;;5108396;28;20461;-78
2023/07/05 12:54:18;;;;;;;2.73;0.77;;;29.10;39.00;;;;;;5102879;28;20506;-78
2023/07/05 12:56:47;;;;;;;1.20;0.80;;;29.30;38.50;;;;;;5106019;28;20444;-79
2023/07/05 12:59:31;;;;;;;1.20;0.80;;;29.50;37.40;;;;;;5108443;28;20449;-79
2023/07/05 13:02:02;;;;;;;1.10;0.80;;;29.50;37.20;;;;;;5105200;28;20464;-80
2023/07/05 13:04:30;;;;;;;2.10;0.60;;;29.40;39.10;;;;;;5105144;28;20492;-77